createdAt,value
2022-12-11T00:00:27.516Z,15.80
2022-12-11T00:02:55.300Z,8.80
2022-12-11T00:05:22.587Z,8.67
2022-12-11T00:07:49.804Z,11.73
2022-12-11T00:10:17.456Z,9.47
2022-12-11T00:12:44.868Z,6.67
2022-12-11T00:15:12.485Z,9.67
2022-12-11T00:17:40.502Z,12.52
2022-12-11T00:20:08.244Z,7.73
2022-12-11T00:22:35.529Z,7.70
2022-12-11T00:25:03.580Z,11.83
2022-12-11T00:27:30.803Z,9.90
2022-12-11T00:29:59.674Z,8.82
2022-12-11T00:32:28.550Z,9.50
2022-12-11T00:34:56.117Z,9.90
2022-12-11T00:37:23.591Z,13.80
2022-12-11T00:39:51.680Z,10.83
2022-12-11T00:42:18.985Z,12.47
2022-12-11T00:44:46.246Z,12.83
2022-12-11T00:47:13.872Z,11.23
2022-12-11T00:49:43.932Z,12.27
2022-12-11T00:52:17.957Z,13.43
2022-12-11T00:54:45.564Z,12.67
2022-12-11T00:57:12.827Z,11.63
2022-12-11T00:59:40.582Z,13.80
2022-12-11T01:02:08.084Z,15.53
2022-12-11T01:04:38.420Z,20.27
2022-12-11T01:07:06.126Z,28.90
2022-12-11T01:09:52.567Z,25.30
2022-12-11T01:12:20.334Z,17.83
2022-12-11T01:14:47.692Z,21.37
2022-12-11T01:17:14.993Z,29.23
2022-12-11T01:19:42.664Z,17.60
2022-12-11T01:22:10.065Z,15.23
2022-12-11T01:24:38.252Z,18.30
2022-12-11T01:27:05.864Z,13.38
2022-12-11T01:29:33.163Z,14.63
2022-12-11T01:32:00.406Z,10.50
2022-12-11T01:34:32.102Z,10.27
2022-12-11T01:36:59.721Z,20.87
2022-12-11T01:39:27.027Z,14.70
2022-12-11T01:41:58.612Z,16.80
2022-12-11T01:44:25.762Z,17.17
2022-12-11T01:46:53.432Z,15.03
2022-12-11T01:49:25.243Z,19.60
2022-12-11T01:52:00.808Z,25.97
2022-12-11T01:54:29.357Z,15.77
2022-12-11T01:57:00.611Z,11.50
2022-12-11T01:59:31.738Z,16.97
2022-12-11T02:02:26.566Z,11.27
2022-12-11T02:04:54.357Z,6.50
2022-12-11T02:07:22.037Z,2.53
2022-12-11T02:09:50.229Z,1.17
2022-12-11T02:12:24.017Z,1.75
2022-12-11T02:15:16.546Z,2.63
2022-12-11T02:17:47.099Z,3.23
2022-12-11T02:20:53.287Z,0.50
2022-12-11T02:23:27.124Z,0.70
2022-12-11T02:26:13.029Z,0.20
2022-12-11T02:29:14.786Z,1.47
2022-12-11T02:31:47.479Z,2.80
2022-12-11T02:34:32.769Z,0.50
2022-12-11T02:37:05.990Z,0.70
2022-12-11T02:39:39.035Z,1.00
2022-12-11T02:42:08.248Z,0.60
2022-12-11T02:44:37.194Z,0.43
2022-12-11T02:47:07.860Z,2.00
2022-12-11T02:49:36.140Z,1.00
2022-12-11T02:52:06.442Z,0.50
2022-12-11T02:54:37.966Z,1.07
2022-12-11T02:57:14.702Z,5.33
2022-12-11T02:59:44.525Z,2.17
2022-12-11T03:02:15.692Z,0.97
2022-12-11T03:04:44.842Z,0.40
2022-12-11T03:07:17.312Z,1.07
2022-12-11T03:09:47.503Z,1.73
2022-12-11T03:12:20.948Z,3.30
2022-12-11T03:14:49.877Z,2.33
2022-12-11T03:19:49.835Z,2.63
2022-12-11T03:22:22.304Z,2.03
2022-12-11T03:24:55.319Z,0.50
2022-12-11T03:27:47.565Z,1.47
2022-12-11T03:30:18.687Z,1.40
2022-12-11T03:32:54.616Z,1.80
2022-12-11T03:35:30.620Z,1.93
2022-12-11T03:38:02.596Z,3.27
2022-12-11T03:40:33.367Z,4.83
2022-12-11T03:43:01.096Z,2.57
2022-12-11T03:45:30.458Z,1.83
2022-12-11T03:48:01.743Z,1.43
2022-12-11T03:50:32.293Z,1.20
2022-12-11T03:53:02.022Z,5.20
2022-12-11T03:55:30.916Z,2.13
2022-12-11T03:57:58.310Z,4.90
2022-12-11T04:00:25.935Z,3.03
2022-12-11T04:03:13.877Z,2.50
2022-12-11T04:05:50.277Z,3.60
2022-12-11T04:08:21.085Z,3.07
2022-12-11T04:10:49.204Z,1.10
2022-12-11T04:13:16.504Z,2.20
2022-12-11T04:15:44.144Z,1.20
2022-12-11T04:18:29.963Z,3.73
2022-12-11T04:21:16.175Z,3.63
2022-12-11T04:24:01.792Z,6.07
2022-12-11T04:26:29.374Z,3.87
2022-12-11T04:28:56.718Z,3.43
2022-12-11T04:31:24.490Z,6.20
2022-12-11T04:33:52.475Z,3.50
2022-12-11T04:36:19.823Z,3.20
2022-12-11T04:38:48.098Z,6.63
2022-12-11T04:41:17.691Z,5.43
2022-12-11T04:43:45.568Z,4.57
2022-12-11T04:46:20.130Z,3.33
2022-12-11T04:48:55.472Z,4.40
2022-12-11T04:51:24.940Z,6.93
2022-12-11T04:53:54.458Z,7.00
2022-12-11T04:56:21.930Z,6.07
2022-12-11T04:58:49.971Z,33.87
2022-12-11T05:01:20.531Z,22.95
2022-12-11T05:03:48.468Z,22.00
2022-12-11T05:06:15.985Z,13.30
2022-12-11T05:08:45.345Z,3.77
2022-12-11T05:11:16.516Z,59.50
2022-12-11T05:13:45.839Z,49.67
2022-12-11T05:16:15.966Z,34.43
2022-12-11T05:18:43.885Z,36.53
2022-12-11T05:21:13.948Z,19.00
2022-12-11T05:23:42.400Z,31.20
2022-12-11T05:26:15.879Z,23.97
2022-12-11T05:28:44.083Z,24.97
2022-12-11T05:31:19.882Z,14.07
2022-12-11T05:33:49.094Z,12.47
2022-12-11T05:36:23.019Z,27.10
2022-12-11T05:38:51.537Z,21.17
2022-12-11T05:41:22.455Z,39.60
2022-12-11T05:43:50.312Z,54.23
2022-12-11T05:46:29.861Z,42.80
2022-12-11T05:48:59.705Z,37.10
2022-12-11T05:51:28.220Z,37.60
2022-12-11T05:53:57.786Z,19.70
2022-12-11T05:56:31.483Z,19.47
2022-12-11T05:59:00.597Z,12.07
2022-12-11T06:01:34.746Z,47.53
2022-12-11T06:04:03.625Z,31.67
2022-12-11T06:06:30.974Z,19.52
2022-12-11T06:08:59.203Z,4.30
2022-12-11T06:11:33.018Z,22.02
2022-12-11T06:14:03.870Z,18.37
2022-12-11T06:16:32.312Z,20.13
2022-12-11T06:18:59.987Z,29.08
2022-12-11T06:21:32.610Z,26.17
2022-12-11T06:24:03.321Z,27.27
2022-12-11T06:26:32.336Z,26.10
2022-12-11T06:29:00.139Z,40.47
2022-12-11T06:31:28.141Z,37.53
2022-12-11T06:33:56.102Z,32.40
2022-12-11T06:36:24.549Z,33.08
2022-12-11T06:38:52.520Z,27.40
2022-12-11T06:41:20.000Z,54.73
2022-12-11T06:43:47.685Z,49.97
2022-12-11T06:46:18.282Z,48.23
2022-12-11T06:48:46.480Z,99.60
2022-12-11T06:51:20.686Z,100.53
2022-12-11T06:53:56.454Z,97.17
2022-12-11T06:56:25.040Z,68.70
2022-12-11T06:58:52.549Z,83.35
2022-12-11T07:01:25.416Z,76.50
2022-12-11T07:03:58.490Z,70.67
2022-12-11T07:06:28.545Z,58.20
2022-12-11T07:08:56.956Z,53.50
2022-12-11T07:11:24.328Z,38.33
2022-12-11T07:13:51.703Z,8.13
2022-12-11T07:16:19.693Z,2.33
2022-12-11T07:18:49.402Z,19.00
2022-12-11T07:21:17.245Z,25.17
2022-12-11T07:23:45.070Z,32.23
2022-12-11T07:26:15.294Z,33.63
2022-12-11T07:28:43.229Z,7.53
2022-12-11T07:31:13.701Z,97.05
2022-12-11T07:33:42.490Z,94.47
2022-12-11T07:36:12.339Z,86.55
2022-12-11T07:38:40.717Z,63.90
2022-12-11T07:41:11.235Z,45.47
2022-12-11T07:43:38.954Z,33.50
2022-12-11T07:46:09.738Z,15.93
2022-12-11T07:48:38.328Z,17.00
2022-12-11T07:51:10.719Z,12.23
2022-12-11T07:53:39.224Z,6.97
2022-12-11T07:56:07.510Z,6.03
2022-12-11T07:58:36.215Z,9.63
2022-12-11T08:03:31.691Z,8.57
2022-12-11T08:05:59.063Z,6.57
2022-12-11T08:08:26.478Z,4.03
2022-12-11T08:10:54.399Z,5.03
2022-12-11T08:13:21.781Z,6.73
2022-12-11T08:15:49.206Z,14.17
2022-12-11T08:18:16.866Z,11.00
2022-12-11T08:20:44.223Z,14.00
2022-12-11T08:23:12.144Z,7.57
2022-12-11T08:25:39.843Z,7.23
2022-12-11T08:28:07.349Z,4.57
2022-12-11T08:30:34.856Z,1.73
2022-12-11T08:33:02.591Z,5.67
2022-12-11T08:35:29.880Z,2.30
2022-12-11T08:37:57.169Z,3.93
2022-12-11T08:40:24.976Z,4.97
2022-12-11T08:42:52.538Z,5.07
2022-12-11T08:45:19.884Z,5.13
2022-12-11T08:47:47.565Z,9.10
2022-12-11T08:50:14.844Z,4.50
2022-12-11T08:52:42.287Z,11.70
2022-12-11T08:55:10.457Z,3.23
2022-12-11T08:57:39.904Z,4.53
2022-12-11T09:00:09.691Z,5.47
2022-12-11T09:02:37.403Z,5.03
2022-12-11T09:05:08.242Z,5.07
2022-12-11T09:07:37.022Z,3.13
2022-12-11T09:10:06.425Z,5.45
2022-12-11T09:15:02.548Z,15.35
2022-12-11T09:17:30.924Z,19.40
2022-12-11T09:19:58.228Z,14.10
2022-12-11T09:22:25.539Z,15.13
2022-12-11T09:24:53.264Z,13.27
2022-12-11T09:27:21.526Z,8.87
2022-12-11T09:29:49.418Z,14.93
2022-12-11T09:32:17.449Z,40.35
2022-12-11T09:34:44.932Z,7.93
2022-12-11T09:37:12.257Z,4.40
2022-12-11T09:39:39.877Z,5.83
2022-12-11T09:42:13.235Z,3.57
2022-12-11T09:44:43.795Z,6.83
2022-12-11T09:47:25.361Z,6.33
2022-12-11T09:50:13.021Z,5.93
2022-12-11T09:52:49.606Z,3.10
2022-12-11T09:55:20.550Z,3.17
2022-12-11T09:58:06.549Z,6.07
2022-12-11T10:00:41.385Z,10.93
2022-12-11T10:03:35.434Z,9.43
2022-12-11T10:06:21.461Z,2.50
2022-12-11T10:09:24.557Z,4.17
2022-12-11T10:12:13.918Z,2.27
2022-12-11T10:14:59.835Z,1.40
2022-12-11T10:17:34.157Z,7.60
2022-12-11T10:20:31.331Z,4.27
2022-12-11T10:22:59.561Z,2.27
2022-12-11T10:25:35.711Z,3.00
2022-12-11T10:28:14.974Z,3.57
2022-12-11T10:30:51.712Z,1.97
2022-12-11T10:33:34.841Z,12.73
2022-12-11T10:36:02.556Z,14.63
2022-12-11T10:38:38.500Z,4.27
2022-12-11T10:41:13.993Z,7.23
2022-12-11T10:43:49.862Z,5.27
2022-12-11T10:46:21.494Z,6.67
2022-12-11T10:48:53.590Z,5.80
2022-12-11T10:51:35.070Z,2.30
2022-12-11T10:54:24.462Z,2.63
2022-12-11T10:56:52.271Z,3.40
2022-12-11T10:59:49.434Z,4.53
2022-12-11T11:02:25.695Z,6.70
2022-12-11T11:04:55.360Z,5.63
2022-12-11T11:07:33.336Z,2.10
2022-12-11T11:10:15.683Z,1.90
2022-12-11T11:12:50.638Z,6.73
2022-12-11T11:15:25.910Z,4.77
2022-12-11T11:17:56.308Z,5.20
2022-12-11T11:20:27.924Z,4.70
2022-12-11T11:22:59.982Z,6.10
2022-12-11T11:25:29.978Z,2.30
2022-12-11T11:28:01.353Z,4.43
2022-12-11T11:30:36.912Z,0.93
2022-12-11T11:33:17.885Z,4.07
2022-12-11T11:36:02.548Z,3.30
2022-12-11T11:38:36.380Z,3.63
2022-12-11T11:41:19.205Z,2.63
2022-12-11T11:43:49.180Z,6.17
2022-12-11T11:46:33.638Z,7.47
2022-12-11T11:49:15.116Z,4.97
2022-12-11T11:52:01.316Z,2.97
2022-12-11T11:54:35.840Z,1.60
2022-12-11T11:57:17.890Z,5.33
2022-12-11T11:59:51.031Z,4.63
2022-12-11T12:02:20.185Z,4.00
2022-12-11T12:04:49.582Z,2.80
2022-12-11T12:07:22.909Z,2.53
2022-12-11T12:10:26.860Z,2.30
2022-12-11T12:13:44.345Z,2.90
2022-12-11T12:16:02.238Z,3.07
2022-12-11T12:18:44.376Z,3.47
2022-12-11T12:21:27.963Z,2.63
2022-12-11T12:24:06.905Z,1.33
2022-12-11T12:26:37.579Z,1.77
2022-12-11T12:29:16.997Z,4.30
2022-12-11T12:32:23.662Z,4.00
2022-12-11T12:35:22.200Z,5.90
2022-12-11T12:40:43.847Z,1.90
2022-12-11T12:43:23.766Z,2.10
2022-12-11T12:46:10.532Z,3.53
2022-12-11T12:48:38.841Z,4.93
2022-12-11T12:51:07.173Z,3.57
2022-12-11T12:53:37.093Z,2.40
2022-12-11T12:56:06.413Z,5.10
2022-12-11T12:58:39.898Z,4.37
2022-12-11T13:01:14.697Z,8.43
2022-12-11T13:04:02.441Z,5.60
2022-12-11T13:06:37.859Z,4.30
2022-12-11T13:09:25.310Z,5.87
2022-12-11T13:11:58.197Z,6.37
2022-12-11T13:14:31.257Z,3.43
2022-12-11T13:17:21.614Z,14.63
2022-12-11T13:19:53.143Z,5.97
2022-12-11T13:22:23.560Z,4.40
2022-12-11T13:24:53.856Z,3.53
2022-12-11T13:27:37.368Z,3.23
2022-12-11T13:30:26.506Z,4.17
2022-12-11T13:33:08.008Z,3.60
2022-12-11T13:35:35.913Z,3.70
2022-12-11T13:38:08.172Z,3.35
2022-12-11T13:40:41.114Z,3.10
2022-12-11T13:43:26.305Z,4.07
2022-12-11T13:46:00.812Z,5.80
2022-12-11T13:48:31.450Z,4.17
2022-12-11T13:50:59.851Z,8.13
2022-12-11T13:53:27.219Z,11.12
2022-12-11T13:56:07.065Z,7.73
2022-12-11T13:58:38.724Z,10.80
2022-12-11T14:01:32.751Z,13.97
2022-12-11T14:04:16.221Z,21.93
2022-12-11T14:06:44.156Z,15.77
2022-12-11T14:09:22.140Z,19.65
2022-12-11T14:11:56.438Z,12.53
2022-12-11T14:14:29.196Z,9.83
2022-12-11T14:16:56.756Z,10.67
2022-12-11T14:19:25.163Z,12.50
2022-12-11T14:21:58.696Z,4.50
2022-12-11T14:24:26.188Z,4.03
2022-12-11T14:26:54.615Z,3.87
2022-12-11T14:29:28.178Z,2.57
2022-12-11T14:31:57.675Z,4.50
2022-12-11T14:34:35.719Z,2.43
2022-12-11T14:37:06.544Z,3.40
2022-12-11T14:40:00.105Z,5.40
2022-12-11T14:42:32.836Z,5.77
2022-12-11T14:45:20.311Z,13.93
2022-12-11T14:47:48.600Z,13.03
2022-12-11T14:50:23.617Z,22.03
2022-12-11T14:52:59.217Z,8.87
2022-12-11T14:55:35.405Z,20.50
2022-12-11T14:58:15.461Z,17.40
2022-12-11T15:00:42.800Z,13.37
2022-12-11T15:03:10.422Z,5.73
2022-12-11T15:05:49.950Z,12.67
2022-12-11T15:08:30.509Z,3.40
2022-12-11T15:11:08.231Z,6.00
2022-12-11T15:13:51.430Z,1.95
2022-12-11T15:16:20.265Z,3.23
2022-12-11T15:21:17.930Z,7.00
2022-12-11T15:23:45.177Z,4.27
2022-12-11T15:26:12.932Z,4.77
2022-12-11T15:28:40.365Z,3.77
2022-12-11T15:31:25.695Z,4.07
2022-12-11T15:33:53.870Z,6.97
2022-12-11T15:36:24.202Z,13.43
2022-12-11T15:38:51.565Z,30.77
2022-12-11T15:41:26.620Z,110.90
2022-12-11T15:43:58.903Z,15.57
2022-12-11T15:46:27.463Z,5.30
2022-12-11T15:48:56.493Z,6.93
2022-12-11T15:51:23.824Z,4.78
2022-12-11T15:53:51.501Z,6.10
2022-12-11T15:56:18.872Z,8.07
2022-12-11T15:58:47.772Z,3.33
2022-12-11T16:03:43.151Z,26.13
2022-12-11T16:06:13.769Z,5.07
2022-12-11T16:08:42.426Z,12.67
2022-12-11T16:11:15.429Z,12.33
2022-12-11T16:13:43.206Z,6.10
2022-12-11T16:16:10.939Z,11.53
2022-12-11T16:18:38.249Z,10.53
2022-12-11T16:21:06.713Z,3.10
2022-12-11T16:23:34.406Z,8.45
2022-12-11T16:26:06.876Z,7.07
2022-12-11T16:28:34.425Z,12.23
2022-12-11T16:31:02.101Z,7.20
2022-12-11T16:33:29.516Z,4.03
2022-12-11T16:35:57.979Z,7.47
2022-12-11T16:38:25.593Z,8.13
2022-12-11T16:41:02.563Z,7.33
2022-12-11T16:43:30.291Z,7.33
2022-12-11T16:45:57.745Z,8.60
2022-12-11T16:48:25.157Z,8.23
2022-12-11T16:50:59.227Z,8.13
2022-12-11T16:53:26.499Z,8.07
2022-12-11T16:55:54.143Z,9.73
2022-12-11T16:58:21.571Z,13.17
2022-12-11T17:00:49.785Z,8.20
2022-12-11T17:03:19.260Z,9.73
2022-12-11T17:05:47.762Z,10.18
2022-12-11T17:08:15.287Z,4.22
2022-12-11T17:10:44.413Z,4.03
2022-12-11T17:13:11.822Z,8.20
2022-12-11T17:15:43.738Z,11.30
2022-12-11T17:18:12.095Z,10.70
2022-12-11T17:20:43.836Z,4.93
2022-12-11T17:23:12.614Z,4.30
2022-12-11T17:25:44.870Z,4.72
2022-12-11T17:28:13.775Z,4.47
2022-12-11T17:30:42.858Z,7.80
2022-12-11T17:33:11.196Z,26.00
2022-12-11T17:35:39.194Z,12.63
2022-12-11T17:38:06.567Z,11.37
2022-12-11T17:40:34.012Z,6.33
2022-12-11T17:43:02.140Z,4.50
2022-12-11T17:45:29.480Z,2.67
2022-12-11T17:47:56.875Z,2.80
2022-12-11T17:50:24.511Z,3.00
2022-12-11T17:52:52.165Z,9.50
2022-12-11T17:55:19.603Z,13.70
2022-12-11T17:57:49.194Z,13.52
2022-12-11T18:00:17.044Z,17.37
2022-12-11T18:02:44.764Z,23.90
2022-12-11T18:05:12.522Z,14.70
2022-12-11T18:07:40.273Z,19.03
2022-12-11T18:10:10.994Z,24.03
2022-12-11T18:12:39.434Z,11.40
2022-12-11T18:15:07.814Z,16.05
2022-12-11T18:17:35.614Z,15.10
2022-12-11T18:20:03.796Z,11.23
2022-12-11T18:22:31.306Z,6.12
2022-12-11T18:24:59.005Z,12.60
2022-12-11T18:27:26.496Z,6.80
2022-12-11T18:29:54.859Z,4.12
2022-12-11T18:32:23.895Z,18.60
2022-12-11T18:34:51.302Z,21.03
2022-12-11T18:37:21.179Z,99.17
2022-12-11T18:39:53.584Z,15.23
2022-12-11T18:42:36.164Z,17.93
2022-12-11T18:45:04.478Z,11.80
2022-12-11T18:47:31.820Z,10.10
2022-12-11T18:50:03.953Z,5.73
2022-12-11T18:52:37.090Z,10.27
2022-12-11T18:55:05.013Z,9.63
2022-12-11T18:57:34.737Z,10.07
2022-12-11T19:00:07.633Z,7.07
2022-12-11T19:02:35.758Z,6.33
2022-12-11T19:05:03.086Z,8.57
2022-12-11T19:07:30.877Z,8.70
2022-12-11T19:09:58.428Z,5.27
2022-12-11T19:12:26.387Z,8.20
2022-12-11T19:14:54.743Z,5.80
2022-12-11T19:17:22.617Z,5.40
2022-12-11T19:19:52.691Z,3.97
2022-12-11T19:22:20.751Z,3.43
2022-12-11T19:24:48.026Z,4.60
2022-12-11T19:27:15.244Z,5.67
2022-12-11T19:29:42.938Z,5.10
2022-12-11T19:32:10.341Z,7.03
2022-12-11T19:34:38.731Z,3.97
2022-12-11T19:37:06.579Z,5.18
2022-12-11T19:39:34.113Z,4.27
2022-12-11T19:42:01.635Z,3.13
2022-12-11T19:44:29.383Z,5.60
2022-12-11T19:46:56.868Z,3.77
2022-12-11T19:49:24.401Z,3.30
2022-12-11T19:51:52.090Z,5.53
2022-12-11T19:54:19.522Z,5.73
2022-12-11T19:56:46.918Z,11.90
2022-12-11T19:59:17.862Z,5.57
2022-12-11T20:01:48.168Z,4.53
2022-12-11T20:04:16.950Z,5.10
2022-12-11T20:06:46.357Z,7.10
2022-12-11T20:11:48.449Z,9.80
2022-12-11T20:14:23.139Z,4.03
2022-12-11T20:22:08.038Z,8.17
2022-12-11T20:24:36.337Z,9.37
2022-12-11T20:27:04.056Z,15.50
2022-12-11T20:29:32.260Z,7.87
2022-12-11T20:32:00.584Z,5.97
2022-12-11T20:34:28.392Z,6.80
2022-12-11T20:36:56.513Z,5.83
2022-12-11T20:39:24.875Z,3.87
2022-12-11T20:41:52.195Z,4.27
2022-12-11T20:44:20.477Z,4.83
2022-12-11T20:46:47.845Z,9.37
2022-12-11T20:49:15.183Z,12.47
2022-12-11T20:51:42.995Z,10.43
2022-12-11T20:54:10.333Z,7.83
2022-12-11T20:56:38.184Z,6.17
2022-12-11T20:59:06.071Z,5.57
2022-12-11T21:01:35.022Z,5.90
2022-12-11T21:04:02.763Z,8.07
2022-12-11T21:06:33.557Z,11.73
2022-12-11T21:09:06.503Z,8.70
2022-12-11T21:11:34.631Z,6.43
2022-12-11T21:14:02.026Z,6.93
2022-12-11T21:16:29.633Z,6.03
2022-12-11T21:18:58.948Z,5.83
2022-12-11T21:21:26.693Z,4.82
2022-12-11T21:23:54.105Z,5.13
2022-12-11T21:26:21.961Z,6.50
2022-12-11T21:28:49.388Z,7.70
2022-12-11T21:31:18.694Z,7.20
2022-12-11T21:33:47.103Z,10.57
2022-12-11T21:36:15.895Z,14.43
2022-12-11T21:38:44.595Z,10.57
2022-12-11T21:41:16.704Z,12.43
2022-12-11T21:44:40.834Z,9.67
2022-12-11T21:46:35.288Z,16.40
2022-12-11T21:49:02.765Z,12.87
2022-12-11T21:51:37.776Z,15.77
2022-12-11T21:54:10.481Z,6.83
2022-12-11T21:56:37.810Z,21.73
2022-12-11T21:59:05.465Z,24.73
2022-12-11T22:01:41.147Z,8.23
2022-12-11T22:04:10.940Z,4.63
2022-12-11T22:09:06.004Z,6.47
2022-12-11T22:11:36.485Z,5.83
2022-12-11T22:14:04.982Z,9.63
2022-12-11T22:16:33.254Z,5.53
2022-12-11T22:19:01.155Z,18.98
2022-12-11T22:21:29.033Z,7.73
2022-12-11T22:23:56.556Z,13.20
2022-12-11T22:26:26.958Z,16.77
2022-12-11T22:28:55.497Z,7.20
2022-12-11T22:31:25.137Z,14.25
2022-12-11T22:33:55.083Z,16.23
2022-12-11T22:38:50.390Z,8.73
2022-12-11T22:41:26.416Z,5.30
2022-12-11T22:43:54.808Z,6.40
2022-12-11T22:46:24.501Z,5.03
2022-12-11T22:48:52.632Z,6.63
2022-12-11T22:51:20.810Z,5.87
2022-12-11T22:53:48.595Z,4.75
2022-12-11T22:56:16.541Z,5.47
2022-12-11T22:58:43.890Z,5.40
2022-12-11T23:01:15.279Z,5.63
2022-12-11T23:03:42.772Z,3.50
2022-12-11T23:06:12.779Z,4.53
2022-12-11T23:08:41.482Z,4.47
2022-12-11T23:11:15.596Z,3.85
2022-12-11T23:13:44.575Z,5.03
2022-12-11T23:16:12.842Z,6.63
2022-12-11T23:18:40.654Z,5.47
2022-12-11T23:21:09.175Z,5.07
2022-12-11T23:23:36.569Z,6.17
2022-12-11T23:26:05.319Z,7.83
2022-12-11T23:28:33.023Z,4.95
2022-12-11T23:31:00.688Z,7.90
2022-12-11T23:33:28.089Z,6.93
2022-12-11T23:35:55.830Z,4.47
2022-12-11T23:38:23.409Z,7.27
2022-12-11T23:40:52.205Z,6.87
2022-12-11T23:43:20.054Z,5.40
2022-12-11T23:45:47.427Z,7.77
2022-12-11T23:48:15.025Z,5.00
2022-12-11T23:50:44.076Z,5.90
2022-12-11T23:53:12.017Z,4.50
2022-12-11T23:55:41.659Z,6.87
2022-12-11T23:58:10.916Z,6.50
